sensor_id;sensor_type;location;lat;lon;timestamp;pressure;altitude;pressure_sealevel;temperature;humidity
48035;BME280;33812;46.480;6.834;2024-01-30T00:03:28;95022.91;;;22.29;35.05
48035;BME280;33812;46.480;6.834;2024-01-30T00:07:30;95020.97;;;22.26;35.06
48035;BME280;33812;46.480;6.834;2024-01-30T00:11:32;95030.47;;;22.25;35.36
48035;BME280;33812;46.480;6.834;2024-01-30T00:15:34;95020.91;;;22.29;34.74
48035;BME280;33812;46.480;6.834;2024-01-30T00:19:37;95014.28;;;22.23;35.00
48035;BME280;33812;46.480;6.834;2024-01-30T00:23:39;95004.81;;;22.20;35.10
48035;BME280;33812;46.480;6.834;2024-01-30T00:27:41;95010.72;;;22.22;35.07
48035;BME280;33812;46.480;6.834;2024-01-30T00:31:43;95020.66;;;22.20;34.87
48035;BME280;33812;46.480;6.834;2024-01-30T00:35:46;95016.72;;;22.17;34.89
48035;BME280;33812;46.480;6.834;2024-01-30T00:39:48;95019.84;;;22.19;34.74
48035;BME280;33812;46.480;6.834;2024-01-30T00:43:50;95021.53;;;22.13;34.85
48035;BME280;33812;46.480;6.834;2024-01-30T00:47:51;95019.94;;;22.12;35.21
48035;BME280;33812;46.480;6.834;2024-01-30T00:51:55;95024.72;;;22.12;34.90
48035;BME280;33812;46.480;6.834;2024-01-30T00:55:56;95025.44;;;22.16;35.01
48035;BME280;33812;46.480;6.834;2024-01-30T00:59:58;95031.75;;;22.16;35.03
48035;BME280;33812;46.480;6.834;2024-01-30T01:04:00;95027.03;;;22.17;34.86
48035;BME280;33812;46.480;6.834;2024-01-30T01:08:04;95025.84;;;22.14;35.03
48035;BME280;33812;46.480;6.834;2024-01-30T01:12:06;95027.81;;;22.14;34.91
48035;BME280;33812;46.480;6.834;2024-01-30T01:16:08;95029.81;;;22.13;34.87
48035;BME280;33812;46.480;6.834;2024-01-30T01:20:11;95031.38;;;22.14;34.81
48035;BME280;33812;46.480;6.834;2024-01-30T01:24:14;95026.31;;;22.09;34.83
48035;BME280;33812;46.480;6.834;2024-01-30T01:28:16;95022.34;;;22.10;34.86
48035;BME280;33812;46.480;6.834;2024-01-30T01:32:18;95024.34;;;22.09;34.84
48035;BME280;33812;46.480;6.834;2024-01-30T01:36:19;95020.78;;;22.09;34.78
48035;BME280;33812;46.480;6.834;2024-01-30T01:40:24;95010.88;;;22.12;34.58
48035;BME280;33812;46.480;6.834;2024-01-30T01:44:27;95015.22;;;22.09;34.75
48035;BME280;33812;46.480;6.834;2024-01-30T01:48:29;95016.81;;;22.10;34.40
48035;BME280;33812;46.480;6.834;2024-01-30T01:52:31;95018.00;;;22.09;34.70
48035;BME280;33812;46.480;6.834;2024-01-30T01:56:35;95014.44;;;22.08;34.74
48035;BME280;33812;46.480;6.834;2024-01-30T02:00:39;95010.53;;;22.06;34.50
48035;BME280;33812;46.480;6.834;2024-01-30T02:04:42;95011.31;;;22.06;34.62
48035;BME280;33812;46.480;6.834;2024-01-30T02:08:44;95020.81;;;22.05;34.57
48035;BME280;33812;46.480;6.834;2024-01-30T02:12:48;95017.63;;;22.07;34.46
48035;BME280;33812;46.480;6.834;2024-01-30T02:16:50;95012.53;;;22.02;34.50
48035;BME280;33812;46.480;6.834;2024-01-30T02:20:54;95012.09;;;22.07;34.55
48035;BME280;33812;46.480;6.834;2024-01-30T02:24:57;95005.81;;;22.03;34.53
48035;BME280;33812;46.480;6.834;2024-01-30T02:28:59;95004.25;;;22.02;34.60
48035;BME280;33812;46.480;6.834;2024-01-30T02:33:00;94999.88;;;22.04;34.57
48035;BME280;33812;46.480;6.834;2024-01-30T02:37:02;95002.25;;;22.02;34.52
48035;BME280;33812;46.480;6.834;2024-01-30T02:41:06;95000.28;;;22.03;34.44
48035;BME280;33812;46.480;6.834;2024-01-30T02:45:09;95003.78;;;22.07;34.54
48035;BME280;33812;46.480;6.834;2024-01-30T02:49:11;94999.88;;;22.04;34.28
48035;BME280;33812;46.480;6.834;2024-01-30T02:53:13;95000.28;;;22.03;34.41
48035;BME280;33812;46.480;6.834;2024-01-30T02:57:16;94994.75;;;22.03;34.44
48035;BME280;33812;46.480;6.834;2024-01-30T03:01:18;94989.22;;;22.03;34.41
48035;BME280;33812;46.480;6.834;2024-01-30T03:05:20;94994.75;;;22.03;34.58
48035;BME280;33812;46.480;6.834;2024-01-30T03:09:22;94991.59;;;22.01;34.22
48035;BME280;33812;46.480;6.834;2024-01-30T03:13:25;94990.03;;;22.00;34.28
48035;BME280;33812;46.480;6.834;2024-01-30T03:17:28;94991.66;;;21.97;34.45
48035;BME280;33812;46.480;6.834;2024-01-30T03:21:30;94987.63;;;22.02;34.29
48035;BME280;33812;46.480;6.834;2024-01-30T03:25:31;94987.31;;;21.96;34.33
48035;BME280;33812;46.480;6.834;2024-01-30T03:29:35;94982.56;;;21.96;34.29
48035;BME280;33812;46.480;6.834;2024-01-30T03:33:36;94982.13;;;21.98;34.23
48035;BME280;33812;46.480;6.834;2024-01-30T03:37:39;94981.78;;;21.96;34.32
48035;BME280;33812;46.480;6.834;2024-01-30T03:41:42;94980.63;;;21.93;34.31
48035;BME280;33812;46.480;6.834;2024-01-30T03:45:46;94980.19;;;21.95;34.14
48035;BME280;33812;46.480;6.834;2024-01-30T03:49:48;94969.94;;;21.95;34.16
48035;BME280;33812;46.480;6.834;2024-01-30T03:53:49;94968.75;;;21.93;34.12
48035;BME280;33812;46.480;6.834;2024-01-30T03:57:51;94973.50;;;21.96;34.20
48035;BME280;33812;46.480;6.834;2024-01-30T04:01:56;94969.88;;;21.99;34.01
48035;BME280;33812;46.480;6.834;2024-01-30T04:05:58;94975.47;;;21.95;33.89
48035;BME280;33812;46.480;6.834;2024-01-30T04:10:00;94971.09;;;21.94;33.83
48035;BME280;33812;46.480;6.834;2024-01-30T04:14:02;94975.88;;;21.94;33.85
48035;BME280;33812;46.480;6.834;2024-01-30T04:18:06;94972.31;;;21.93;33.84
48035;BME280;33812;46.480;6.834;2024-01-30T04:22:07;94975.41;;;21.99;33.67
48035;BME280;33812;46.480;6.834;2024-01-30T04:26:10;94968.34;;;21.94;33.66
48035;BME280;33812;46.480;6.834;2024-01-30T04:30:12;94969.97;;;21.92;33.75
48035;BME280;33812;46.480;6.834;2024-01-30T04:34:16;94977.44;;;21.95;33.41
48035;BME280;33812;46.480;6.834;2024-01-30T04:38:18;94983.75;;;21.95;33.41
48035;BME280;33812;46.480;6.834;2024-01-30T04:42:20;94980.63;;;21.93;33.38
48035;BME280;33812;46.480;6.834;2024-01-30T04:46:22;94987.81;;;21.87;33.48
48035;BME280;33812;46.480;6.834;2024-01-30T04:50:25;94994.88;;;21.92;33.53
48035;BME280;33812;46.480;6.834;2024-01-30T04:54:28;94995.28;;;21.90;33.67
48035;BME280;33812;46.480;6.834;2024-01-30T04:58:29;95001.25;;;21.89;33.54
48035;BME280;33812;46.480;6.834;2024-01-30T05:02:31;94996.13;;;21.87;33.58
48035;BME280;33812;46.480;6.834;2024-01-30T05:06:34;95004.00;;;21.89;33.68
48035;BME280;33812;46.480;6.834;2024-01-30T05:10:36;95000.44;;;21.88;33.44
48035;BME280;33812;46.480;6.834;2024-01-30T05:14:38;94995.34;;;21.86;33.44
48035;BME280;33812;46.480;6.834;2024-01-30T05:18:40;95009.16;;;21.86;33.56
48035;BME280;33812;46.480;6.834;2024-01-30T05:22:43;94999.31;;;21.85;33.46
48035;BME280;33812;46.480;6.834;2024-01-30T05:26:46;95005.19;;;21.88;33.56
48035;BME280;33812;46.480;6.834;2024-01-30T05:30:49;95015.91;;;21.85;33.55
48035;BME280;33812;46.480;6.834;2024-01-30T05:34:51;95021.75;;;21.91;33.39
48035;BME280;33812;46.480;6.834;2024-01-30T05:38:55;95013.06;;;21.89;33.42
48035;BME280;33812;46.480;6.834;2024-01-30T05:42:57;95019.41;;;21.90;33.36
48035;BME280;33812;46.480;6.834;2024-01-30T05:47:01;95022.47;;;21.99;33.25
48035;BME280;33812;46.480;6.834;2024-01-30T05:51:03;95019.78;;;21.92;33.27
48035;BME280;33812;46.480;6.834;2024-01-30T05:55:07;95019.34;;;21.97;33.36
48035;BME280;33812;46.480;6.834;2024-01-30T05:59:10;95022.91;;;21.97;32.85
48035;BME280;33812;46.480;6.834;2024-01-30T06:03:11;95026.44;;;21.98;32.65
48035;BME280;33812;46.480;6.834;2024-01-30T06:07:13;95027.34;;;21.88;32.85
48035;BME280;33812;46.480;6.834;2024-01-30T06:11:16;95034.38;;;21.96;33.01
48035;BME280;33812;46.480;6.834;2024-01-30T06:15:19;95030.22;;;22.15;33.30
48035;BME280;33812;46.480;6.834;2024-01-30T06:19:22;95038.34;;;21.95;33.42
48035;BME280;33812;46.480;6.834;2024-01-30T06:23:24;95041.44;;;22.01;32.20
48035;BME280;33812;46.480;6.834;2024-01-30T06:27:27;95035.63;;;21.88;31.93
48035;BME280;33812;46.480;6.834;2024-01-30T06:31:29;95043.59;;;21.85;31.99
48035;BME280;33812;46.480;6.834;2024-01-30T06:35:31;95049.50;;;21.84;32.06
48035;BME280;33812;46.480;6.834;2024-01-30T06:39:33;95045.97;;;21.83;32.19
48035;BME280;33812;46.480;6.834;2024-01-30T06:43:36;95051.50;;;21.83;32.20
48035;BME280;33812;46.480;6.834;2024-01-30T06:47:38;95052.69;;;21.79;32.28
48035;BME280;33812;46.480;6.834;2024-01-30T06:51:40;95049.16;;;21.78;32.23
48035;BME280;33812;46.480;6.834;2024-01-30T06:55:41;95059.41;;;21.85;32.36
48035;BME280;33812;46.480;6.834;2024-01-30T06:59:45;95055.84;;;21.84;32.46
48035;BME280;33812;46.480;6.834;2024-01-30T07:03:47;95052.25;;;21.88;32.07
48035;BME280;33812;46.480;6.834;2024-01-30T07:07:49;95057.00;;;21.87;31.89
48035;BME280;33812;46.480;6.834;2024-01-30T07:11:51;95070.84;;;21.87;31.86
48035;BME280;33812;46.480;6.834;2024-01-30T07:15:57;95071.56;;;21.91;32.04
48035;BME280;33812;46.480;6.834;2024-01-30T07:19:59;95087.81;;;21.89;31.73
48035;BME280;33812;46.480;6.834;2024-01-30T07:24:00;95084.63;;;21.48;27.41
48035;BME280;33812;46.480;6.834;2024-01-30T07:28:03;95081.19;;;21.76;30.68
48035;BME280;33812;46.480;6.834;2024-01-30T07:32:06;95091.44;;;21.82;30.70
48035;BME280;33812;46.480;6.834;2024-01-30T07:36:08;95094.19;;;21.82;31.00
48035;BME280;33812;46.480;6.834;2024-01-30T07:40:12;95095.75;;;21.87;31.09
48035;BME280;33812;46.480;6.834;2024-01-30T07:44:14;95100.88;;;21.89;31.39
48035;BME280;33812;46.480;6.834;2024-01-30T07:48:17;95099.63;;;21.93;31.32
48035;BME280;33812;46.480;6.834;2024-01-30T07:52:19;95105.16;;;21.93;31.58
48035;BME280;33812;46.480;6.834;2024-01-30T07:56:21;95100.44;;;21.94;31.51
48035;BME280;33812;46.480;6.834;2024-01-30T08:00:23;95096.81;;;22.01;31.28
48035;BME280;33812;46.480;6.834;2024-01-30T08:04:26;95114.94;;;22.05;31.55
48035;BME280;33812;46.480;6.834;2024-01-30T08:08:28;95104.66;;;22.06;31.60
48035;BME280;33812;46.480;6.834;2024-01-30T08:12:30;95114.91;;;22.09;31.47
48035;BME280;33812;46.480;6.834;2024-01-30T08:16:32;95112.09;;;22.13;31.59
48035;BME280;33812;46.480;6.834;2024-01-30T08:20:35;95116.38;;;22.17;31.62
48035;BME280;33812;46.480;6.834;2024-01-30T08:24:37;95114.41;;;22.18;31.50
48035;BME280;33812;46.480;6.834;2024-01-30T08:28:40;95114.81;;;22.16;31.64
48035;BME280;33812;46.480;6.834;2024-01-30T08:32:42;95120.28;;;22.24;31.67
48035;BME280;33812;46.480;6.834;2024-01-30T08:36:45;95116.31;;;22.25;31.66
48035;BME280;33812;46.480;6.834;2024-01-30T08:40:48;95117.91;;;22.26;31.50
48035;BME280;33812;46.480;6.834;2024-01-30T08:44:50;95113.88;;;22.30;31.67
48035;BME280;33812;46.480;6.834;2024-01-30T08:48:53;95122.16;;;22.34;31.49
48035;BME280;33812;46.480;6.834;2024-01-30T08:52:56;95117.72;;;22.40;31.58
48035;BME280;33812;46.480;6.834;2024-01-30T08:56:58;95116.16;;;22.39;31.49
48035;BME280;33812;46.480;6.834;2024-01-30T09:01:00;95113.34;;;22.43;31.59
48035;BME280;33812;46.480;6.834;2024-01-30T09:05:04;95123.69;;;22.39;31.76
48035;BME280;33812;46.480;6.834;2024-01-30T09:09:07;95119.25;;;22.45;31.74
48035;BME280;33812;46.480;6.834;2024-01-30T09:13:09;95116.84;;;22.47;31.76
48035;BME280;33812;46.480;6.834;2024-01-30T09:17:11;95127.94;;;22.47;31.65
48035;BME280;33812;46.480;6.834;2024-01-30T09:21:13;95117.56;;;22.55;31.70
48035;BME280;33812;46.480;6.834;2024-01-30T09:25:16;95127.44;;;22.56;31.83
48035;BME280;33812;46.480;6.834;2024-01-30T09:29:19;95127.78;;;22.62;31.78
48035;BME280;33812;46.480;6.834;2024-01-30T09:33:20;95125.81;;;22.62;31.50
48035;BME280;33812;46.480;6.834;2024-01-30T09:37:22;95128.50;;;22.69;31.88
48035;BME280;33812;46.480;6.834;2024-01-30T09:41:26;95130.16;;;22.63;31.63
48035;BME280;33812;46.480;6.834;2024-01-30T09:45:29;95127.75;;;22.65;31.78
48035;BME280;33812;46.480;6.834;2024-01-30T09:49:34;95140.34;;;22.70;31.89
48035;BME280;33812;46.480;6.834;2024-01-30T09:53:36;95137.53;;;22.74;31.91
48035;BME280;33812;46.480;6.834;2024-01-30T09:57:41;95138.75;;;22.73;31.88
48035;BME280;33812;46.480;6.834;2024-01-30T10:01:43;95141.06;;;22.78;32.13
48035;BME280;33812;46.480;6.834;2024-01-30T10:05:51;95142.56;;;22.82;32.19
48035;BME280;33812;46.480;6.834;2024-01-30T10:09:53;95141.38;;;22.84;32.04
48035;BME280;33812;46.480;6.834;2024-01-30T10:13:58;95149.63;;;22.87;31.93
48035;BME280;33812;46.480;6.834;2024-01-30T10:18:00;95152.78;;;22.89;31.81
48035;BME280;33812;46.480;6.834;2024-01-30T10:22:01;95151.94;;;22.92;32.22
48035;BME280;33812;46.480;6.834;2024-01-30T10:26:04;95150.38;;;22.91;32.33
48035;BME280;33812;46.480;6.834;2024-01-30T10:30:08;95155.91;;;22.91;32.37
48035;BME280;33812;46.480;6.834;2024-01-30T10:34:09;95156.66;;;22.96;32.54
48035;BME280;33812;46.480;6.834;2024-01-30T10:38:13;95144.75;;;22.99;32.08
48035;BME280;33812;46.480;6.834;2024-01-30T10:42:18;95147.13;;;22.97;32.57
48035;BME280;33812;46.480;6.834;2024-01-30T10:46:25;95146.31;;;23.00;32.64
48035;BME280;33812;46.480;6.834;2024-01-30T10:50:30;95145.47;;;23.03;32.73
48035;BME280;33812;46.480;6.834;2024-01-30T10:54:35;95137.09;;;23.06;32.48
48035;BME280;33812;46.480;6.834;2024-01-30T10:58:36;95138.69;;;23.08;32.87
48035;BME280;33812;46.480;6.834;2024-01-30T11:02:41;95133.50;;;23.10;32.47
48035;BME280;33812;46.480;6.834;2024-01-30T11:06:43;95130.69;;;23.13;32.38
48035;BME280;33812;46.480;6.834;2024-01-30T11:10:46;95125.47;;;23.15;32.82
48035;BME280;33812;46.480;6.834;2024-01-30T11:14:48;95123.81;;;23.22;32.59
48035;BME280;33812;46.480;6.834;2024-01-30T11:18:51;95123.47;;;23.19;32.58
48035;BME280;33812;46.480;6.834;2024-01-30T11:22:56;95119.84;;;23.23;32.79
48035;BME280;33812;46.480;6.834;2024-01-30T11:26:58;95115.88;;;23.24;33.02
48035;BME280;33812;46.480;6.834;2024-01-30T11:31:04;95115.88;;;23.24;32.87
48035;BME280;33812;46.480;6.834;2024-01-30T11:35:08;95115.88;;;23.24;32.94
48035;BME280;33812;46.480;6.834;2024-01-30T11:39:13;95106.34;;;23.25;32.66
48035;BME280;33812;46.480;6.834;2024-01-30T11:43:17;95104.38;;;23.25;32.81
48035;BME280;33812;46.480;6.834;2024-01-30T11:47:19;95091.25;;;23.26;32.94
48035;BME280;33812;46.480;6.834;2024-01-30T11:51:22;95100.75;;;23.28;33.04
48035;BME280;33812;46.480;6.834;2024-01-30T11:55:24;95094.41;;;23.28;32.98
48035;BME280;33812;46.480;6.834;2024-01-30T11:59:26;95100.78;;;23.25;32.91
48035;BME280;33812;46.480;6.834;2024-01-30T12:03:28;95099.25;;;23.24;32.96
48035;BME280;33812;46.480;6.834;2024-01-30T12:07:31;95102.00;;;23.24;33.33
48035;BME280;33812;46.480;6.834;2024-01-30T12:11:33;95105.25;;;23.18;33.06
48035;BME280;33812;46.480;6.834;2024-01-30T12:15:44;95100.84;;;23.21;32.90
48035;BME280;33812;46.480;6.834;2024-01-30T12:19:46;95091.38;;;23.18;33.18
48035;BME280;33812;46.480;6.834;2024-01-30T12:23:49;95088.25;;;23.16;33.18
48035;BME280;33812;46.480;6.834;2024-01-30T12:27:52;95090.59;;;23.18;33.39
48035;BME280;33812;46.480;6.834;2024-01-30T12:31:54;95088.63;;;23.18;33.39
48035;BME280;33812;46.480;6.834;2024-01-30T12:36:01;95084.25;;;23.17;33.33
48035;BME280;33812;46.480;6.834;2024-01-30T12:40:06;95081.47;;;23.17;33.04
48035;BME280;33812;46.480;6.834;2024-01-30T12:44:08;95073.16;;;23.17;33.47
48035;BME280;33812;46.480;6.834;2024-01-30T12:48:10;95070.41;;;23.17;33.18
48035;BME280;33812;46.480;6.834;2024-01-30T12:52:13;95069.91;;;23.23;33.24
48035;BME280;33812;46.480;6.834;2024-01-30T12:56:17;95062.81;;;23.22;33.60
48035;BME280;33812;46.480;6.834;2024-01-30T13:00:19;95058.03;;;23.22;33.23
48035;BME280;33812;46.480;6.834;2024-01-30T13:04:21;95050.50;;;23.23;33.11
48035;BME280;33812;46.480;6.834;2024-01-30T13:08:23;95051.25;;;23.27;33.34
48035;BME280;33812;46.480;6.834;2024-01-30T13:12:26;95058.72;;;23.30;33.55
48035;BME280;33812;46.480;6.834;2024-01-30T13:16:28;95051.56;;;23.33;33.77
48035;BME280;33812;46.480;6.834;2024-01-30T13:20:30;95056.63;;;23.38;33.71
48035;BME280;33812;46.480;6.834;2024-01-30T13:24:32;95046.66;;;23.40;33.36
48035;BME280;33812;46.480;6.834;2024-01-30T13:28:35;95043.06;;;23.43;33.37
48035;BME280;33812;46.480;6.834;2024-01-30T13:32:37;95051.38;;;23.43;33.36
48035;BME280;33812;46.480;6.834;2024-01-30T13:36:41;95049.75;;;23.46;33.88
48035;BME280;33812;46.480;6.834;2024-01-30T13:40:43;95051.75;;;23.46;33.74
48035;BME280;33812;46.480;6.834;2024-01-30T13:44:46;95043.41;;;23.46;33.51
48035;BME280;33812;46.480;6.834;2024-01-30T13:48:48;95041.88;;;23.45;33.89
48035;BME280;33812;46.480;6.834;2024-01-30T13:52:50;95043.41;;;23.46;33.67
48035;BME280;33812;46.480;6.834;2024-01-30T13:56:52;95051.38;;;23.43;33.52
48035;BME280;33812;46.480;6.834;2024-01-30T14:00:55;95055.75;;;23.45;33.72
48035;BME280;33812;46.480;6.834;2024-01-30T14:04:57;95049.81;;;23.42;33.49
48035;BME280;33812;46.480;6.834;2024-01-30T14:08:58;95056.97;;;23.40;33.54
48035;BME280;33812;46.480;6.834;2024-01-30T14:13:00;95056.69;;;23.34;33.66
48035;BME280;33812;46.480;6.834;2024-01-30T14:17:04;95059.44;;;23.34;33.55
48035;BME280;33812;46.480;6.834;2024-01-30T14:21:07;95057.50;;;23.31;33.89
48035;BME280;33812;46.480;6.834;2024-01-30T14:25:09;95057.88;;;23.33;33.55
48035;BME280;33812;46.480;6.834;2024-01-30T14:29:10;95058.28;;;23.31;33.49
48035;BME280;33812;46.480;6.834;2024-01-30T14:33:14;95061.47;;;23.30;33.72
48035;BME280;33812;46.480;6.834;2024-01-30T14:37:17;95062.69;;;23.29;33.83
48035;BME280;33812;46.480;6.834;2024-01-30T14:41:18;95061.97;;;23.25;33.57
48035;BME280;33812;46.480;6.834;2024-01-30T14:45:20;95059.19;;;23.25;33.64
48035;BME280;33812;46.480;6.834;2024-01-30T14:49:24;95058.03;;;23.22;33.70
48035;BME280;33812;46.480;6.834;2024-01-30T14:53:28;95048.94;;;23.22;33.61
48035;BME280;33812;46.480;6.834;2024-01-30T14:57:29;95053.69;;;23.21;33.62
48035;BME280;33812;46.480;6.834;2024-01-30T15:01:31;95050.13;;;23.21;33.62
48035;BME280;33812;46.480;6.834;2024-01-30T15:05:34;95046.16;;;23.22;33.73
48035;BME280;33812;46.480;6.834;2024-01-30T15:09:36;95046.94;;;23.22;33.53
48035;BME280;33812;46.480;6.834;2024-01-30T15:13:37;95040.50;;;23.29;33.34
48035;BME280;33812;46.480;6.834;2024-01-30T15:17:39;95052.78;;;23.28;33.76
48035;BME280;33812;46.480;6.834;2024-01-30T15:21:42;95052.38;;;23.29;33.78
48035;BME280;33812;46.480;6.834;2024-01-30T15:25:44;95052.38;;;23.29;33.43
48035;BME280;33812;46.480;6.834;2024-01-30T15:29:46;95059.56;;;23.27;33.64
48035;BME280;33812;46.480;6.834;2024-01-30T15:33:47;95069.06;;;23.26;33.65
48035;BME280;33812;46.480;6.834;2024-01-30T15:37:50;95064.31;;;23.26;33.40
48035;BME280;33812;46.480;6.834;2024-01-30T15:41:52;95054.84;;;23.24;33.70
48035;BME280;33812;46.480;6.834;2024-01-30T15:45:54;95068.66;;;23.27;33.27
48035;BME280;33812;46.480;6.834;2024-01-30T15:49:56;95078.56;;;23.28;33.55
48035;BME280;33812;46.480;6.834;2024-01-30T15:53:59;95080.91;;;23.30;33.49
48035;BME280;33812;46.480;6.834;2024-01-30T15:58:01;95070.59;;;23.30;33.11
48035;BME280;33812;46.480;6.834;2024-01-30T16:02:03;95063.47;;;23.29;33.36
48035;BME280;33812;46.480;6.834;2024-01-30T16:06:05;95068.59;;;23.31;33.22
48035;BME280;33812;46.480;6.834;2024-01-30T16:10:11;95075.72;;;23.32;33.12
48035;BME280;33812;46.480;6.834;2024-01-30T16:14:16;95070.97;;;23.33;33.40
48035;BME280;33812;46.480;6.834;2024-01-30T16:18:18;95068.25;;;23.29;33.22
48035;BME280;33812;46.480;6.834;2024-01-30T16:22:20;95080.09;;;23.29;32.77
48035;BME280;33812;46.480;6.834;2024-01-30T16:26:23;95071.03;;;23.29;33.00
48035;BME280;33812;46.480;6.834;2024-01-30T16:30:25;95070.66;;;23.27;33.05
48035;BME280;33812;46.480;6.834;2024-01-30T16:34:27;95072.22;;;23.28;33.87
48035;BME280;33812;46.480;6.834;2024-01-30T16:38:29;95074.88;;;23.35;35.35
48035;BME280;33812;46.480;6.834;2024-01-30T16:42:32;95071.06;;;23.25;35.77
48035;BME280;33812;46.480;6.834;2024-01-30T16:46:35;95085.59;;;23.33;36.65
48035;BME280;33812;46.480;6.834;2024-01-30T16:50:39;95101.53;;;23.29;36.60
48035;BME280;33812;46.480;6.834;2024-01-30T16:54:41;95105.88;;;23.30;38.24
48035;BME280;33812;46.480;6.834;2024-01-30T16:58:45;95117.69;;;23.34;37.43
48035;BME280;33812;46.480;6.834;2024-01-30T17:02:47;95115.75;;;23.31;37.61
48035;BME280;33812;46.480;6.834;2024-01-30T17:06:49;95115.25;;;23.36;37.34
48035;BME280;33812;46.480;6.834;2024-01-30T17:10:52;95126.31;;;23.40;37.15
48035;BME280;33812;46.480;6.834;2024-01-30T17:14:55;95128.28;;;23.43;37.31
48035;BME280;33812;46.480;6.834;2024-01-30T17:18:57;95121.97;;;23.39;37.68
48035;BME280;33812;46.480;6.834;2024-01-30T17:22:59;95128.69;;;23.41;37.36
48035;BME280;33812;46.480;6.834;2024-01-30T17:27:01;95133.06;;;23.42;37.68
48035;BME280;33812;46.480;6.834;2024-01-30T17:31:04;95129.13;;;23.36;37.75
48035;BME280;33812;46.480;6.834;2024-01-30T17:35:07;95138.19;;;23.40;37.62
48035;BME280;33812;46.480;6.834;2024-01-30T17:39:09;95137.88;;;23.35;37.23
48035;BME280;33812;46.480;6.834;2024-01-30T17:43:11;95133.19;;;23.31;37.36
48035;BME280;33812;46.480;6.834;2024-01-30T17:47:14;95126.84;;;23.31;37.60
48035;BME280;33812;46.480;6.834;2024-01-30T17:51:16;95134.03;;;23.28;39.10
48035;BME280;33812;46.480;6.834;2024-01-30T17:55:18;95138.78;;;23.28;38.42
48035;BME280;33812;46.480;6.834;2024-01-30T17:59:19;95134.44;;;23.27;38.17
48035;BME280;33812;46.480;6.834;2024-01-30T18:03:24;95136.84;;;23.25;38.08
48035;BME280;33812;46.480;6.834;2024-01-30T18:07:26;95151.59;;;23.18;38.29
48035;BME280;33812;46.480;6.834;2024-01-30T18:11:28;95148.41;;;23.19;37.84
48035;BME280;33812;46.480;6.834;2024-01-30T18:15:30;95153.59;;;23.17;38.29
48035;BME280;33812;46.480;6.834;2024-01-30T18:19:33;95156.38;;;23.17;37.84
48035;BME280;33812;46.480;6.834;2024-01-30T18:23:35;95160.72;;;23.18;37.60
48035;BME280;33812;46.480;6.834;2024-01-30T18:27:36;95160.75;;;23.46;33.39
48035;BME280;33812;46.480;6.834;2024-01-30T18:31:38;95161.50;;;23.47;34.64
48035;BME280;33812;46.480;6.834;2024-01-30T18:35:43;95159.50;;;23.19;34.58
48035;BME280;33812;46.480;6.834;2024-01-30T18:39:45;95158.41;;;23.13;35.14
48035;BME280;33812;46.480;6.834;2024-01-30T18:43:47;95164.44;;;23.08;35.36
48035;BME280;33812;46.480;6.834;2024-01-30T18:47:49;95169.50;;;23.13;35.42
48035;BME280;33812;46.480;6.834;2024-01-30T18:51:52;95175.06;;;23.13;36.75
48035;BME280;33812;46.480;6.834;2024-01-30T18:55:56;95159.69;;;23.05;36.23
48035;BME280;33812;46.480;6.834;2024-01-30T18:59:58;95170.03;;;23.04;36.29
48035;BME280;33812;46.480;6.834;2024-01-30T19:03:59;95171.75;;;22.91;36.33
48035;BME280;33812;46.480;6.834;2024-01-30T19:08:06;95176.53;;;22.90;36.01
48035;BME280;33812;46.480;6.834;2024-01-30T19:12:08;95176.44;;;22.98;35.86
48035;BME280;33812;46.480;6.834;2024-01-30T19:16:10;95171.72;;;22.63;27.23
48035;BME280;33812;46.480;6.834;2024-01-30T19:20:12;95178.84;;;21.80;26.18
48035;BME280;33812;46.480;6.834;2024-01-30T19:24:15;95184.09;;;22.51;28.08
48035;BME280;33812;46.480;6.834;2024-01-30T19:28:16;95180.94;;;22.49;28.33
48035;BME280;33812;46.480;6.834;2024-01-30T19:32:18;95179.41;;;22.44;28.80
48035;BME280;33812;46.480;6.834;2024-01-30T19:36:20;95192.06;;;22.45;29.63
48035;BME280;33812;46.480;6.834;2024-01-30T19:40:23;95188.78;;;22.54;30.24
48035;BME280;33812;46.480;6.834;2024-01-30T19:44:25;95193.53;;;22.54;31.04
48035;BME280;33812;46.480;6.834;2024-01-30T19:48:27;95194.69;;;22.60;32.90
48035;BME280;33812;46.480;6.834;2024-01-30T19:52:29;95195.03;;;22.66;33.78
48035;BME280;33812;46.480;6.834;2024-01-30T19:56:32;95191.88;;;22.67;34.72
48035;BME280;33812;46.480;6.834;2024-01-30T20:00:33;95188.25;;;22.70;35.55
48035;BME280;33812;46.480;6.834;2024-01-30T20:04:35;95188.56;;;22.80;35.86
48035;BME280;33812;46.480;6.834;2024-01-30T20:08:37;95188.63;;;22.73;36.04
48035;BME280;33812;46.480;6.834;2024-01-30T20:12:40;95193.84;;;22.67;36.35
48035;BME280;33812;46.480;6.834;2024-01-30T20:16:42;95195.72;;;22.74;36.60
48035;BME280;33812;46.480;6.834;2024-01-30T20:20:45;95200.09;;;22.75;36.53
48035;BME280;33812;46.480;6.834;2024-01-30T20:24:47;95203.25;;;22.73;36.94
48035;BME280;33812;46.480;6.834;2024-01-30T20:28:50;95212.44;;;22.66;36.70
48035;BME280;33812;46.480;6.834;2024-01-30T20:32:54;95210.09;;;22.65;37.10
48035;BME280;33812;46.480;6.834;2024-01-30T20:36:55;95220.75;;;22.66;36.88
48035;BME280;33812;46.480;6.834;2024-01-30T20:40:57;95227.91;;;22.64;37.14
48035;BME280;33812;46.480;6.834;2024-01-30T20:45:01;95222.00;;;22.62;37.25
48035;BME280;33812;46.480;6.834;2024-01-30T20:49:04;95219.22;;;22.62;37.25
48035;BME280;33812;46.480;6.834;2024-01-30T20:53:06;95216.41;;;22.65;37.16
48035;BME280;33812;46.480;6.834;2024-01-30T20:57:09;95220.75;;;22.66;36.92
48035;BME280;33812;46.480;6.834;2024-01-30T21:01:12;95219.56;;;22.67;37.16
48035;BME280;33812;46.480;6.834;2024-01-30T21:05:13;95213.63;;;22.69;36.97
48035;BME280;33812;46.480;6.834;2024-01-30T21:09:19;95213.22;;;22.67;37.07
48035;BME280;33812;46.480;6.834;2024-01-30T21:13:22;95215.97;;;22.70;36.63
48035;BME280;33812;46.480;6.834;2024-01-30T21:17:25;95225.16;;;22.60;36.50
48035;BME280;33812;46.480;6.834;2024-01-30T21:21:27;95235.41;;;22.67;35.80
48035;BME280;33812;46.480;6.834;2024-01-30T21:25:29;95235.81;;;22.65;35.70